Time;durP1;ratioP1;P1;durP2;ratioP2;P2;SDS_P1;SDS_P2;PMS_P1;PMS_P2;Temp;Humidity;BMP_temperature;BMP_pressure;BME280_temperature;BME280_humidity;BME280_pressure;Samples;Min_cycle;Max_cycle;Signal;HPM_P1;HPM_P2
2021/07/14 00:02:22;;;;;;;1.38;1.30;;;;;;;18.35;66.85;100575.66;6277372;22;20075;-80
2021/07/14 00:04:48;;;;;;;1.10;1.10;;;;;;;18.36;67.06;100580.06;6274766;22;20084;-79
2021/07/14 00:07:14;;;;;;;1.45;1.35;;;;;;;18.35;66.62;100575.66;6276120;22;20086;-79
2021/07/14 00:09:39;;;;;;;1.25;1.25;;;;;;;18.37;66.65;100581.69;6251427;22;20004;-78
2021/07/14 00:12:07;;;;;;;1.25;1.10;;;;;;;18.31;66.60;100569.91;6269992;22;20011;-79
2021/07/14 00:22:35;;;;;;;1.00;1.00;;;;;;;18.30;66.21;100585.72;6253114;22;20018;-79
2021/07/14 00:25:02;;;;;;;1.40;1.30;;;;;;;18.30;65.73;100579.38;6276458;22;20007;-80
2021/07/14 00:27:28;;;;;;;1.10;1.10;;;;;;;18.26;66.33;100590.22;6276929;22;20006;-78
2021/07/14 00:29:55;;;;;;;1.25;1.00;;;;;;;18.22;65.81;100586.44;6274420;22;20008;-77
2021/07/14 00:32:22;;;;;;;0.98;0.98;;;;;;;18.15;66.25;100583.31;6276513;22;20004;-78
2021/07/14 00:34:48;;;;;;;0.90;0.90;;;;;;;18.12;66.18;100581.16;6276506;22;20041;-78
2021/07/14 00:37:14;;;;;;;1.58;1.48;;;;;;;18.06;65.99;100574.13;6280329;22;20004;-79
2021/07/14 00:39:41;;;;;;;0.85;0.85;;;;;;;18.08;66.50;100569.09;6252991;22;20086;-78
2021/07/14 00:42:08;;;;;;;0.60;0.60;;;;;;;18.06;66.53;100563.06;6275976;22;20007;-77
2021/07/14 00:44:34;;;;;;;0.88;0.88;;;;;;;18.04;66.25;100574.44;6275908;22;20000;-78
2021/07/14 00:47:01;;;;;;;1.00;1.00;;;;;;;18.02;66.15;100573.09;6275256;22;20004;-77
2021/07/14 00:49:28;;;;;;;0.57;0.57;;;;;;;18.04;66.74;100566.13;6273637;22;20407;-77
2021/07/14 00:51:54;;;;;;;0.85;0.85;;;;;;;18.05;65.80;100575.28;6277634;22;20007;-77
2021/07/14 00:54:20;;;;;;;0.90;0.90;;;;;;;18.02;66.15;100579.47;6279752;22;20035;-78
2021/07/14 00:56:48;;;;;;;0.90;0.90;;;;;;;18.02;66.42;100584.16;6285501;22;20075;-79
2021/07/14 00:59:14;;;;;;;0.73;0.73;;;;;;;17.97;65.93;100587.88;6253843;22;20012;-79
2021/07/14 01:01:43;;;;;;;0.80;0.80;;;;;;;17.89;66.42;100581.13;6283429;22;20038;-77
2021/07/14 01:04:40;;;;;;;0.88;0.88;;;;;;;17.95;65.76;100590.97;6259538;22;20003;-76
2021/07/14 01:07:28;;;;;;;0.77;0.77;;;;;;;17.89;65.91;100589.41;6260971;22;20004;-76
2021/07/14 01:10:13;;;;;;;1.55;0.80;;;;;;;17.83;66.11;100587.91;6284462;22;20007;-77
2021/07/14 01:12:48;;;;;;;1.00;1.00;;;;;;;17.74;66.22;100589.75;6280809;22;20448;-78
2021/07/14 01:15:17;;;;;;;0.80;0.73;;;;;;;17.71;66.12;100593.13;6282250;22;20010;-78
2021/07/14 01:18:10;;;;;;;0.73;0.73;;;;;;;17.66;66.06;100601.56;6288017;22;20003;-79
2021/07/14 01:20:53;;;;;;;0.90;0.90;;;;;;;17.63;66.25;100594.69;6287915;22;19999;-76
2021/07/14 01:23:34;;;;;;;0.88;0.88;;;;;;;17.63;66.23;100601.03;6286349;22;20144;-77
2021/07/14 01:26:30;;;;;;;0.88;0.88;;;;;;;17.62;66.29;100601.34;6287835;22;20055;-76
2021/07/14 01:28:57;;;;;;;0.75;0.75;;;;;;;17.63;66.37;100600.22;6288031;22;20018;-76
2021/07/14 01:31:24;;;;;;;0.75;0.75;;;;;;;17.59;66.04;100596.44;6286798;22;20021;-76
2021/07/14 01:33:57;;;;;;;0.63;0.63;;;;;;;17.56;66.25;100603.38;6288208;22;20008;-77
2021/07/14 01:36:25;;;;;;;0.90;0.47;;;;;;;17.49;66.08;100600.22;6289462;22;20266;-77
2021/07/14 01:38:54;;;;;;;0.75;0.75;;;;;;;17.41;66.29;100607.31;6289172;22;20104;-77
2021/07/14 01:41:23;;;;;;;2.63;0.93;;;;;;;17.38;66.25;100601.59;6283561;22;20027;-78
2021/07/14 01:43:57;;;;;;;0.80;0.80;;;;;;;17.26;66.61;100602.09;6287117;22;20038;-79
2021/07/14 01:46:26;;;;;;;0.60;0.60;;;;;;;17.23;66.45;100606.28;6287745;22;20103;-76
2021/07/14 01:48:55;;;;;;;0.50;0.50;;;;;;;17.18;66.19;100611.91;6286328;22;19999;-77
2021/07/14 01:51:48;;;;;;;3.05;0.50;;;;;;;17.15;66.43;100604.22;6285302;22;20010;-78
2021/07/14 01:54:15;;;;;;;0.40;0.40;;;;;;;17.12;66.30;100602.06;6286688;22;20010;-77
2021/07/14 01:56:41;;;;;;;0.60;0.60;;;;;;;17.07;66.37;100602.19;6284547;22;20023;-77
2021/07/14 01:59:10;;;;;;;0.50;0.50;;;;;;;17.10;66.58;100609.88;6282878;22;20031;-76
2021/07/14 02:01:41;;;;;;;0.60;0.60;;;;;;;17.05;66.20;100607.19;6285099;22;20003;-75
2021/07/14 02:09:58;;;;;;;0.57;0.57;;;;;;;16.89;66.70;100610.25;6285892;22;20019;-76
2021/07/14 02:12:26;;;;;;;0.50;0.50;;;;;;;16.90;66.90;100605.53;6282035;22;20008;-77
2021/07/14 02:14:55;;;;;;;0.60;0.60;;;;;;;16.89;66.97;100604.72;6286160;22;20022;-77
2021/07/14 02:17:23;;;;;;;0.60;0.60;;;;;;;16.89;66.70;100606.66;6285713;22;20046;-76
2021/07/14 02:19:56;;;;;;;0.45;0.45;;;;;;;16.86;66.74;100610.78;6286588;22;20079;-77
2021/07/14 02:22:21;;;;;;;0.60;0.60;;;;;;;16.79;66.58;100610.38;6315290;22;20003;-77
2021/07/14 02:24:47;;;;;;;0.47;0.47;;;;;;;16.80;66.96;100611.22;6266905;22;20010;-77
2021/07/14 02:27:12;;;;;;;0.40;0.40;;;;;;;16.76;66.85;100616.50;6316279;22;20008;-78
2021/07/14 02:29:40;;;;;;;0.47;0.47;;;;;;;16.74;66.47;100630.63;6291331;22;19999;-78
2021/07/14 02:32:14;;;;;;;0.32;0.32;;;;;;;16.71;66.59;100631.22;6293669;22;20029;-78
2021/07/14 02:34:40;;;;;;;0.35;0.35;;;;;;;16.65;66.65;100628.88;6318487;22;20033;-76
2021/07/14 02:37:10;;;;;;;0.40;0.40;;;;;;;16.62;66.77;100632.22;6296259;22;20053;-81
2021/07/14 02:39:38;;;;;;;0.50;0.50;;;;;;;16.56;66.87;100634.25;6270105;22;20015;-81
2021/07/14 02:42:11;;;;;;;2.15;0.57;;;;;;;16.50;67.00;100628.00;6297071;22;20003;-81
2021/07/14 02:44:43;;;;;;;1.02;0.93;;;;;;;16.43;66.97;100627.56;6293503;22;20328;-77
2021/07/14 02:47:58;;;;;;;0.40;0.40;;;;;;;16.44;67.27;100637.50;6268758;22;20097;-78
2021/07/14 02:56:13;;;;;;;;;;;;;;;;;;;;;
2021/07/14 02:58:45;;;;;;;1.00;1.00;;;;;;;16.18;67.86;100634.28;6292762;22;20015;-80
2021/07/14 03:02:06;;;;;;;1.80;1.65;;;;;;;16.16;68.14;100640.09;6292309;22;20063;-81
2021/07/14 03:04:58;;;;;;;1.30;1.30;;;;;;;15.95;67.95;100624.97;6289005;22;20000;-77
2021/07/14 03:07:26;;;;;;;2.20;1.27;;;;;;;15.78;68.69;100615.25;6287995;22;20004;-76
2021/07/14 03:09:52;;;;;;;1.27;1.23;;;;;;;15.83;68.87;100634.50;6288551;22;20426;-77
2021/07/14 03:12:24;;;;;;;1.38;1.27;;;;;;;15.75;68.99;100624.09;6293672;22;20007;-78
2021/07/14 03:14:59;;;;;;;1.50;1.50;;;;;;;15.69;69.71;100633.53;6286572;22;20007;-79
2021/07/14 03:17:28;;;;;;;2.05;1.83;;;;;;;15.66;70.27;100628.63;6288808;22;20003;-77
2021/07/14 03:19:55;;;;;;;1.80;1.70;;;;;;;15.64;70.03;100625.34;6286666;22;20000;-78
2021/07/14 03:22:22;;;;;;;1.60;1.55;;;;;;;15.60;70.37;100629.81;6286814;22;20058;-77
2021/07/14 03:24:48;;;;;;;1.50;1.40;;;;;;;15.60;70.79;100629.81;6259604;22;20349;-79
2021/07/14 03:27:14;;;;;;;1.70;1.60;;;;;;;15.59;70.42;100639.19;6278679;22;20004;-79
2021/07/14 03:29:43;;;;;;;1.38;1.38;;;;;;;15.56;70.72;100645.28;6282193;22;20060;-79
2021/07/14 03:32:10;;;;;;;1.20;1.20;;;;;;;15.49;70.14;100646.47;6284297;22;20067;-78
2021/07/14 03:34:37;;;;;;;2.78;1.45;;;;;;;15.46;70.90;100646.22;6286049;22;19999;-79
2021/07/14 03:37:12;;;;;;;2.05;1.95;;;;;;;15.43;70.82;100647.63;6284056;22;20000;-78
2021/07/14 03:39:45;;;;;;;1.35;1.25;;;;;;;15.39;70.78;100652.09;6284778;22;20008;-77
2021/07/14 03:42:14;;;;;;;1.38;1.38;;;;;;;15.34;70.91;100652.16;6285053;22;20003;-77
2021/07/14 03:44:42;;;;;;;1.17;1.17;;;;;;;15.30;71.33;100653.84;6284074;22;20422;-77
2021/07/14 03:47:08;;;;;;;1.90;1.80;;;;;;;15.26;71.35;100652.78;6283823;22;20114;-78
2021/07/14 03:49:35;;;;;;;2.00;1.90;;;;;;;15.27;71.58;100652.47;6259219;22;20041;-78
2021/07/14 03:52:01;;;;;;;1.60;1.50;;;;;;;15.28;72.15;100647.81;6283688;22;20004;-74
2021/07/14 03:54:30;;;;;;;1.60;1.52;;;;;;;15.35;71.59;100651.03;6248308;22;20020;-75
2021/07/14 03:56:56;;;;;;;2.85;2.00;;;;;;;15.37;71.53;100643.28;6276889;22;20031;-74
2021/07/14 03:59:23;;;;;;;1.20;1.20;;;;;;;15.43;71.62;100653.13;6275603;22;20065;-73
2021/07/14 04:01:49;;;;;;;2.15;2.05;;;;;;;15.41;72.11;100638.03;6274612;22;20091;-75
2021/07/14 04:04:15;;;;;;;1.85;1.75;;;;;;;15.51;71.45;100657.19;6274198;22;20008;-75
2021/07/14 04:06:45;;;;;;;2.35;2.08;;;;;;;15.51;71.39;100666.28;6271211;22;20010;-73
2021/07/14 04:09:16;;;;;;;1.70;1.60;;;;;;;15.50;71.82;100667.38;6271785;22;20426;-74
2021/07/14 04:11:46;;;;;;;2.08;1.88;;;;;;;15.46;71.56;100669.09;6276620;22;20007;-75
2021/07/14 04:14:12;;;;;;;1.70;1.60;;;;;;;15.40;71.49;100664.75;6252224;22;20039;-76
2021/07/14 04:16:37;;;;;;;2.10;2.00;;;;;;;15.43;71.85;100664.16;6276620;22;20007;-75
2021/07/14 04:19:03;;;;;;;1.38;1.27;;;;;;;15.41;71.52;100660.88;6274777;22;20031;-75
2021/07/14 04:21:29;;;;;;;2.00;1.90;;;;;;;15.40;71.55;100653.72;6276428;22;20436;-74
2021/07/14 04:23:58;;;;;;;2.30;2.20;;;;;;;15.38;71.60;100644.94;6275155;22;20311;-74
2021/07/14 04:26:24;;;;;;;4.40;2.08;;;;;;;15.36;72.23;100647.16;6276225;22;20326;-74
2021/07/14 04:28:50;;;;;;;1.80;1.70;;;;;;;15.35;71.69;100651.03;6296885;22;20376;-75
2021/07/14 04:31:16;;;;;;;2.63;2.53;;;;;;;15.31;71.83;100655.50;6277710;22;20008;-73
2021/07/14 04:33:44;;;;;;;1.80;1.70;;;;;;;15.29;71.95;100649.47;6249962;22;20108;-74
2021/07/14 04:36:09;;;;;;;2.08;1.98;;;;;;;15.23;71.94;100642.34;6255635;22;20038;-75
2021/07/14 04:38:35;;;;;;;2.53;2.33;;;;;;;15.33;71.84;100644.97;6250663;22;20322;-75
2021/07/14 04:41:00;;;;;;;1.90;1.80;;;;;;;15.40;71.79;100648.22;6280041;22;20008;-75
2021/07/14 04:43:27;;;;;;;2.20;2.05;;;;;;;15.45;71.91;100661.94;6243533;22;20330;-76
2021/07/14 04:45:52;;;;;;;2.72;2.63;;;;;;;15.45;71.69;100661.94;6222012;22;20116;-74
2021/07/14 04:48:18;;;;;;;3.08;2.33;;;;;;;15.46;71.98;100666.34;6271555;22;20434;-75
2021/07/14 04:50:43;;;;;;;2.35;2.15;;;;;;;15.47;71.84;100658.91;6274450;22;20065;-75
2021/07/14 04:53:09;;;;;;;3.22;3.03;;;;;;;15.44;71.94;100654.78;6251009;22;20008;-75
2021/07/14 04:55:34;;;;;;;1.88;1.77;;;;;;;15.49;71.71;100663.00;6274544;22;20343;-75
2021/07/14 04:57:59;;;;;;;2.47;2.38;;;;;;;15.48;72.09;100661.34;6246749;22;20004;-74
2021/07/14 05:00:25;;;;;;;2.08;1.98;;;;;;;15.50;71.93;100674.84;6219788;22;20003;-75
2021/07/14 05:02:51;;;;;;;2.08;1.88;;;;;;;15.52;72.00;100665.19;6247762;22;20045;-75
2021/07/14 05:05:16;;;;;;;1.33;1.33;;;;;;;15.53;72.01;100671.50;6273110;22;20004;-76
2021/07/14 05:07:44;;;;;;;1.45;1.45;;;;;;;15.54;71.81;100665.69;6245975;22;20334;-74
2021/07/14 05:10:12;;;;;;;2.40;2.10;;;;;;;15.53;71.57;100664.03;6242335;22;20004;-75
2021/07/14 05:12:38;;;;;;;2.25;1.88;;;;;;;15.52;71.76;100658.81;6274848;22;20506;-74
2021/07/14 05:15:05;;;;;;;2.58;2.47;;;;;;;15.54;71.77;100665.69;6273426;22;20034;-75
2021/07/14 05:17:30;;;;;;;2.15;2.03;;;;;;;15.60;72.08;100669.22;6241983;22;20413;-76
2021/07/14 05:19:58;;;;;;;1.88;1.77;;;;;;;15.62;72.06;100666.16;6272474;22;20039;-76
2021/07/14 05:22:24;;;;;;;2.33;2.22;;;;;;;15.65;71.99;100662.81;6277523;22;20057;-77
2021/07/14 05:24:50;;;;;;;2.13;2.03;;;;;;;15.67;72.09;100660.59;6277028;22;20017;-75
2021/07/14 05:27:15;;;;;;;2.25;2.10;;;;;;;15.65;71.92;100660.06;6277368;22;20019;-74
2021/07/14 05:29:41;;;;;;;1.90;1.77;;;;;;;15.68;71.91;100659.47;6248439;22;20054;-76
2021/07/14 05:32:07;;;;;;;1.95;1.85;;;;;;;15.78;71.67;100670.38;6277967;22;20008;-75
2021/07/14 05:34:33;;;;;;;1.80;1.70;;;;;;;15.85;71.61;100676.38;6274438;22;20445;-77
2021/07/14 05:36:59;;;;;;;2.40;2.30;;;;;;;15.86;71.58;100683.53;6274938;22;20383;-76
2021/07/14 05:39:25;;;;;;;2.10;2.00;;;;;;;15.94;71.63;100687.56;6265717;22;20007;-75
2021/07/14 05:41:50;;;;;;;2.15;2.05;;;;;;;15.99;71.92;100675.63;6273083;22;20058;-75
2021/07/14 05:44:16;;;;;;;2.42;2.33;;;;;;;16.05;71.29;100680.00;6271465;22;20007;-75
2021/07/14 05:46:45;;;;;;;4.57;2.08;;;;;;;16.16;71.81;100681.47;6275330;22;19996;-75
2021/07/14 05:49:11;;;;;;;2.03;1.92;;;;;;;16.22;71.64;100683.06;6275828;22;20083;-75
2021/07/14 05:51:37;;;;;;;2.22;2.08;;;;;;;16.29;71.52;100679.91;6268720;22;20385;-76
2021/07/14 05:54:04;;;;;;;1.95;1.85;;;;;;;16.34;71.00;100685.38;6279759;22;20074;-77
2021/07/14 05:56:29;;;;;;;3.22;1.92;;;;;;;16.41;70.97;100693.25;6278634;22;20011;-77
2021/07/14 05:58:55;;;;;;;2.33;2.22;;;;;;;16.47;70.85;100691.25;6277012;22;20003;-77
2021/07/14 06:01:21;;;;;;;2.13;2.03;;;;;;;16.55;70.57;100699.66;6276775;22;20392;-76
2021/07/14 06:03:47;;;;;;;2.28;2.17;;;;;;;16.64;70.38;100704.53;6273891;22;20315;-76
2021/07/14 06:06:14;;;;;;;2.00;1.88;;;;;;;16.70;70.30;100700.56;6276689;22;20000;-77
2021/07/14 06:08:40;;;;;;;1.80;1.70;;;;;;;16.78;70.27;100712.84;6277487;22;20081;-76
2021/07/14 06:11:07;;;;;;;2.83;1.80;;;;;;;16.79;69.96;100698.75;6242223;22;20415;-77
2021/07/14 06:13:35;;;;;;;2.00;1.90;;;;;;;16.90;69.86;100711.28;6276355;22;19999;-75
2021/07/14 06:16:01;;;;;;;2.15;1.90;;;;;;;16.93;69.46;100699.63;6280369;22;20014;-76
2021/07/14 06:18:29;;;;;;;2.03;1.83;;;;;;;16.99;69.38;100702.34;6277942;22;19999;-76
2021/07/14 06:20:57;;;;;;;1.40;1.40;;;;;;;17.09;69.63;100697.44;6277645;22;20018;-76
2021/07/14 06:23:23;;;;;;;1.75;1.70;;;;;;;17.14;69.55;100699.28;6277985;22;20000;-75
2021/07/14 06:25:48;;;;;;;4.22;1.85;;;;;;;17.19;69.44;100693.69;6275626;22;20000;-76
2021/07/14 06:28:14;;;;;;;2.35;2.25;;;;;;;17.21;68.84;100683.13;6278546;22;20003;-75
2021/07/14 06:30:41;;;;;;;2.28;2.17;;;;;;;17.22;68.78;100684.78;6278297;22;20007;-75
2021/07/14 06:33:07;;;;;;;1.80;1.70;;;;;;;17.23;68.88;100680.91;6278785;22;20010;-76
2021/07/14 06:35:35;;;;;;;1.55;1.55;;;;;;;17.37;68.75;100699.44;6246020;22;20079;-73
2021/07/14 06:38:01;;;;;;;1.75;1.65;;;;;;;17.44;68.83;100691.56;6274200;22;20094;-73
2021/07/14 06:40:26;;;;;;;1.05;1.05;;;;;;;17.57;68.71;100693.50;6272136;22;20008;-75
2021/07/14 06:42:52;;;;;;;3.83;1.10;;;;;;;17.71;68.35;100696.28;6270801;22;20091;-74
2021/07/14 06:45:17;;;;;;;0.95;0.95;;;;;;;17.81;68.04;100700.78;6242666;22;20035;-74
2021/07/14 06:47:43;;;;;;;1.33;1.30;;;;;;;17.89;67.57;100700.06;6281818;22;20004;-76
2021/07/14 06:50:11;;;;;;;2.15;1.70;;;;;;;17.98;66.71;100713.22;6288697;22;20007;-76
2021/07/14 06:52:38;;;;;;;1.02;1.02;;;;;;;18.05;66.88;100710.84;6289482;22;20056;-75
2021/07/14 06:55:05;;;;;;;1.13;1.13;;;;;;;18.12;66.64;100717.59;6281932;22;20050;-77
2021/07/14 06:57:30;;;;;;;5.50;1.00;;;;;;;18.23;66.98;100712.66;6278612;22;20008;-74
2021/07/14 06:59:56;;;;;;;1.20;1.15;;;;;;;18.37;66.23;100717.31;6276799;22;20062;-73
2021/07/14 07:02:22;;;;;;;1.08;1.08;;;;;;;18.46;66.01;100710.75;6251192;22;20007;-75
2021/07/14 07:04:47;;;;;;;1.50;1.40;;;;;;;18.52;65.48;100707.88;6272002;22;20014;-75
2021/07/14 07:07:12;;;;;;;1.58;1.58;;;;;;;18.46;65.61;100709.94;6270381;22;20750;-73
2021/07/14 07:09:38;;;;;;;1.23;1.23;;;;;;;18.51;65.41;100707.03;6270061;22;20371;-75
2021/07/14 07:12:04;;;;;;;0.80;0.80;;;;;;;18.62;66.03;100713.97;6272798;22;20103;-74
2021/07/14 07:14:30;;;;;;;1.40;1.40;;;;;;;18.72;65.46;100715.69;6269763;22;20020;-75
2021/07/14 07:16:55;;;;;;;1.80;1.70;;;;;;;18.72;64.21;100701.00;6271816;22;20315;-75
2021/07/14 07:19:20;;;;;;;1.85;1.75;;;;;;;18.78;64.19;100721.94;6274719;22;20069;-74
2021/07/14 07:21:48;;;;;;;1.30;1.27;;;;;;;18.74;64.21;100712.59;6247188;22;20004;-76
2021/07/14 07:24:13;;;;;;;1.73;1.63;;;;;;;18.79;64.07;100715.22;6248765;22;20003;-75
2021/07/14 07:26:39;;;;;;;1.20;1.10;;;;;;;18.89;64.02;100712.25;6250221;22;20015;-79
2021/07/14 07:29:05;;;;;;;1.60;1.50;;;;;;;18.90;63.94;100716.66;6257555;22;20014;-79
2021/07/14 07:31:32;;;;;;;2.38;2.22;;;;;;;18.95;64.08;100722.09;6280232;22;20039;-78
2021/07/14 07:33:58;;;;;;;1.67;1.58;;;;;;;18.97;64.17;100725.34;6280740;22;20007;-78
2021/07/14 07:36:25;;;;;;;1.40;1.30;;;;;;;19.08;63.88;100719.53;6281919;22;20003;-77
2021/07/14 07:38:50;;;;;;;2.65;1.60;;;;;;;19.23;63.33;100726.63;6276456;22;20275;-77
2021/07/14 07:41:17;;;;;;;2.10;2.00;;;;;;;19.36;62.77;100725.72;6273651;22;20007;-77
2021/07/14 07:43:42;;;;;;;1.90;1.80;;;;;;;19.44;62.39;100726.94;6272969;22;20007;-76
2021/07/14 07:46:09;;;;;;;1.55;1.48;;;;;;;19.48;61.85;100728.75;6274339;22;20007;-77
2021/07/14 07:48:35;;;;;;;3.42;1.20;;;;;;;19.52;61.64;100720.59;6273131;22;20011;-76
2021/07/14 07:51:00;;;;;;;1.50;1.50;;;;;;;19.57;61.87;100720.47;6258861;22;20386;-77
2021/07/14 07:53:26;;;;;;;1.25;1.25;;;;;;;19.69;61.72;100717.88;6236988;22;20004;-78
2021/07/14 07:55:52;;;;;;;1.05;1.05;;;;;;;19.78;61.66;100719.88;6277562;22;20091;-75
2021/07/14 07:58:19;;;;;;;0.90;0.90;;;;;;;19.86;61.07;100721.91;6276876;22;20402;-75
2021/07/14 08:00:46;;;;;;;1.70;1.60;;;;;;;19.92;60.90;100720.63;6276012;22;20008;-77
2021/07/14 08:03:11;;;;;;;1.20;1.15;;;;;;;19.96;60.69;100727.16;6275379;22;20485;-76
2021/07/14 08:05:37;;;;;;;1.83;1.73;;;;;;;20.02;59.61;100736.16;6240245;22;20059;-75
2021/07/14 08:08:04;;;;;;;2.42;1.65;;;;;;;20.12;59.98;100735.03;6275642;22;20022;-75
2021/07/14 08:10:29;;;;;;;2.45;1.80;;;;;;;20.19;59.89;100730.66;6276508;22;20493;-76
2021/07/14 08:12:55;;;;;;;1.50;1.40;;;;;;;20.42;58.90;100732.47;6278354;22;20022;-76
2021/07/14 08:15:20;;;;;;;1.23;1.23;;;;;;;20.47;58.83;100740.63;6275361;22;20095;-74
2021/07/14 08:17:46;;;;;;;7.13;1.20;;;;;;;20.59;58.46;100740.81;6270758;22;20058;-75
2021/07/14 08:20:12;;;;;;;1.42;1.42;;;;;;;20.71;58.43;100741.00;6272238;22;20560;-73
2021/07/14 08:22:38;;;;;;;1.35;1.30;;;;;;;20.82;58.31;100746.22;6268675;22;20012;-73
2021/07/14 08:25:06;;;;;;;1.30;1.30;;;;;;;20.96;58.07;100741.31;6274806;22;20095;-74
2021/07/14 08:27:33;;;;;;;4.63;1.60;;;;;;;21.13;57.81;100748.00;6268543;22;20034;-75
2021/07/14 08:29:59;;;;;;;1.73;1.63;;;;;;;21.25;57.48;100748.16;6251726;22;20032;-74
2021/07/14 08:32:29;;;;;;;1.15;1.10;;;;;;;21.47;57.22;100754.63;6272064;22;20019;-77
2021/07/14 08:34:55;;;;;;;1.50;1.40;;;;;;;21.60;56.45;100745.28;6270592;22;20008;-75
2021/07/14 08:37:22;;;;;;;4.90;1.73;;;;;;;21.53;55.29;100742.19;6270492;22;20042;-74
2021/07/14 08:39:49;;;;;;;1.50;1.40;;;;;;;21.48;56.10;100745.13;6248065;22;20407;-74
2021/07/14 08:42:16;;;;;;;1.77;1.67;;;;;;;21.62;56.48;100751.31;6265953;22;20034;-76
2021/07/14 08:44:42;;;;;;;1.40;1.30;;;;;;;21.78;56.14;100746.81;6275208;22;20124;-74
2021/07/14 08:47:08;;;;;;;1.30;1.30;;;;;;;21.86;55.03;100749.91;6280543;22;20012;-75
2021/07/14 08:49:36;;;;;;;1.10;1.10;;;;;;;21.98;55.55;100750.03;6280723;22;20014;-74
2021/07/14 08:52:02;;;;;;;1.00;1.00;;;;;;;22.17;55.72;100743.22;6282661;22;20003;-76
2021/07/14 08:54:27;;;;;;;0.88;0.88;;;;;;;22.41;55.40;100748.94;6273930;22;20351;-76
2021/07/14 08:56:53;;;;;;;1.88;0.60;;;;;;;22.69;55.33;100748.41;6271336;22;20015;-75
2021/07/14 08:59:19;;;;;;;1.55;1.20;;;;;;;22.80;53.82;100749.63;6273703;22;20011;-74
2021/07/14 09:01:46;;;;;;;4.15;1.20;;;;;;;22.80;53.54;100754.41;6275968;22;20058;-73
2021/07/14 09:04:12;;;;;;;1.10;1.10;;;;;;;22.84;53.53;100756.16;6268393;22;20027;-78
2021/07/14 09:06:37;;;;;;;0.60;0.60;;;;;;;22.95;53.40;100750.16;6279251;22;20004;-76
2021/07/14 09:09:04;;;;;;;1.02;1.02;;;;;;;23.07;53.47;100741.88;6277848;22;20029;-74
2021/07/14 09:11:30;;;;;;;3.00;1.10;;;;;;;23.20;52.29;100736.34;6277128;22;20003;-74
2021/07/14 09:13:55;;;;;;;1.05;1.05;;;;;;;23.24;52.25;100740.06;6274798;22;20084;-74
2021/07/14 09:16:34;;;;;;;1.33;1.33;;;;;;;23.33;51.94;100738.00;6274999;22;20448;-73
2021/07/14 09:19:13;;;;;;;1.17;0.90;;;;;;;23.46;52.05;100742.44;6276188;22;20018;-74
2021/07/14 09:21:42;;;;;;;0.93;0.93;;;;;;;23.49;52.02;100747.31;6272490;22;20004;-76
2021/07/14 09:24:48;;;;;;;1.20;1.20;;;;;;;23.43;51.75;100747.91;6278451;22;20068;-77
2021/07/14 09:27:28;;;;;;;4.23;1.17;;;;;;;23.43;51.81;100754.28;6273295;22;20006;-76
2021/07/14 09:30:08;;;;;;;0.75;0.75;;;;;;;23.58;52.26;100743.63;6275264;22;20256;-76
2021/07/14 09:32:54;;;;;;;0.70;0.70;;;;;;;23.80;51.66;100745.97;6277141;22;20057;-77
2021/07/14 09:35:27;;;;;;;;;;;;;;;23.97;49.45;100735.78;6279315;22;20099;-75
2021/07/14 09:37:55;;;;;;;0.90;0.90;;;;;;;23.82;50.86;100754.81;6278326;22;20257;-77
2021/07/14 09:40:21;;;;;;;0.80;0.80;;;;;;;23.88;50.16;100752.63;6276734;22;20060;-75
2021/07/14 09:42:58;;;;;;;0.90;0.90;;;;;;;23.99;50.12;100745.44;6277279;22;20015;-79
2021/07/14 09:45:45;;;;;;;0.63;0.60;;;;;;;24.26;50.58;100745.06;6276418;22;20000;-77
2021/07/14 09:48:22;;;;;;;0.68;0.68;;;;;;;24.23;49.38;100750.16;6272814;22;20008;-74
2021/07/14 09:50:54;;;;;;;0.63;0.63;;;;;;;24.31;49.11;100742.84;6251709;22;20193;-73
2021/07/14 09:53:22;;;;;;;0.85;0.85;;;;;;;24.39;49.53;100749.44;6274873;22;20054;-75
2021/07/14 09:55:50;;;;;;;1.10;1.00;;;;;;;24.42;48.80;100737.56;6273043;22;20091;-74
2021/07/14 09:58:24;;;;;;;0.82;0.82;;;;;;;24.66;48.84;100742.31;6270925;22;20337;-72
2021/07/14 10:00:54;;;;;;;0.50;0.50;;;;;;;24.78;48.56;100749.84;6273324;22;20322;-74
2021/07/14 10:03:25;;;;;;;0.70;0.70;;;;;;;24.88;48.59;100743.75;6301664;22;20007;-73
2021/07/14 10:06:01;;;;;;;0.70;0.70;;;;;;;25.11;47.87;100739.56;6270522;22;19996;-77
2021/07/14 10:08:28;;;;;;;0.70;0.70;;;;;;;25.50;46.82;100749.03;6274080;22;20004;-74
2021/07/14 10:11:27;;;;;;;1.00;1.00;;;;;;;25.73;45.13;100738.03;6274479;22;20030;-73
2021/07/14 10:13:58;;;;;;;0.90;0.90;;;;;;;26.02;44.77;100746.31;6276648;22;20000;-72
2021/07/14 10:16:29;;;;;;;1.20;1.17;;;;;;;26.39;44.91;100741.19;6275434;22;20000;-73
2021/07/14 10:19:01;;;;;;;0.85;0.85;;;;;;;26.57;44.84;100752.78;6278886;22;20042;-73
2021/07/14 10:21:28;;;;;;;1.25;0.80;;;;;;;26.92;44.43;100740.72;6274603;22;20010;-74
2021/07/14 10:23:58;;;;;;;0.55;0.55;;;;;;;27.49;44.77;100740.19;6275511;22;20011;-75
2021/07/14 10:27:02;;;;;;;0.40;0.40;;;;;;;28.33;43.64;100748.78;6266264;22;20011;-74
2021/07/14 10:29:29;;;;;;;1.40;0.75;;;;;;;28.68;39.62;100759.72;6272248;22;20007;-74
2021/07/14 10:31:55;;;;;;;1.92;0.60;;;;;;;28.37;39.76;100758.06;6273769;22;20014;-75
2021/07/14 10:34:21;;;;;;;1.40;0.47;;;;;;;28.41;40.72;100758.91;6274962;22;20081;-74
2021/07/14 10:36:51;;;;;;;0.50;0.50;;;;;;;28.83;39.90;100754.28;6273975;22;20004;-77
2021/07/14 10:39:18;;;;;;;0.80;0.80;;;;;;;29.06;38.80;100749.31;6270878;22;20327;-74
2021/07/14 10:41:45;;;;;;;0.57;0.57;;;;;;;29.37;38.26;100749.28;6271355;22;20029;-73
2021/07/14 10:44:11;;;;;;;0.40;0.40;;;;;;;29.71;38.96;100751.97;6274136;22;20039;-79
2021/07/14 10:46:38;;;;;;;0.93;0.75;;;;;;;30.01;36.48;100753.84;6273932;22;20011;-76
2021/07/14 10:49:07;;;;;;;1.20;0.60;;;;;;;29.63;35.75;100756.75;6276960;22;20411;-73
2021/07/14 10:51:33;;;;;;;3.60;0.45;;;;;;;29.39;36.99;100758.13;6269719;22;20015;-72
2021/07/14 10:54:02;;;;;;;0.43;0.40;;;;;;;29.51;37.59;100759.84;6272870;22;20028;-71
2021/07/14 10:56:35;;;;;;;0.50;0.50;;;;;;;29.81;37.38;100756.91;6277421;22;20030;-75
2021/07/14 10:59:02;;;;;;;0.95;0.50;;;;;;;30.02;37.38;100756.28;6277787;22;20023;-74
2021/07/14 11:01:55;;;;;;;0.47;0.47;;;;;;;30.25;35.43;100758.03;6280130;22;20561;-73
2021/07/14 11:04:27;;;;;;;0.73;0.73;;;;;;;30.13;36.56;100755.56;6273690;22;20022;-76
2021/07/14 11:07:06;;;;;;;0.50;0.50;;;;;;;29.93;36.09;100767.09;6285624;22;20054;-74
2021/07/14 11:09:49;;;;;;;1.30;0.50;;;;;;;29.74;35.85;100756.84;6283896;22;20079;-74
2021/07/14 11:12:29;;;;;;;1.15;0.50;;;;;;;29.74;36.61;100757.63;6281595;22;20012;-73
2021/07/14 11:15:02;;;;;;;0.50;0.50;;;;;;;29.89;36.77;100758.59;6283373;22;20004;-73
2021/07/14 11:17:32;;;;;;;0.50;0.50;;;;;;;30.03;35.98;100757.91;6254826;22;20007;-74
2021/07/14 11:20:13;;;;;;;0.57;0.57;;;;;;;30.00;35.13;100763.50;6284960;22;20007;-74
2021/07/14 11:22:41;;;;;;;0.45;0.45;;;;;;;29.99;35.79;100754.22;6283466;22;20000;-74
2021/07/14 11:25:27;;;;;;;0.43;0.40;;;;;;;30.45;36.05;100750.94;6253485;22;20068;-76
2021/07/14 11:28:08;;;;;;;0.30;0.30;;;;;;;31.49;36.08;100760.97;6276809;22;20004;-74
2021/07/14 11:30:42;;;;;;;0.43;0.43;;;;;;;31.94;32.59;100760.59;6262876;22;20007;-78
2021/07/14 11:33:10;;;;;;;0.52;0.52;;;;;;;32.28;32.10;100755.31;6277462;22;20003;-76
2021/07/14 11:35:38;;;;;;;1.00;0.35;;;;;;;33.05;31.98;100768.00;6273285;22;20007;-77
2021/07/14 11:38:13;;;;;;;0.30;0.30;;;;;;;33.90;31.70;100760.13;6277010;22;20000;-76
2021/07/14 11:40:42;;;;;;;0.20;0.20;;;;;;;34.96;30.84;100764.25;6273780;22;20002;-76
2021/07/14 11:43:10;;;;;;;0.30;0.30;;;;;;;35.48;28.56;100763.13;6277265;22;20011;-76
2021/07/14 11:45:53;;;;;;;0.22;0.22;;;;;;;36.02;27.77;100766.31;6279497;22;20002;-76
2021/07/14 11:48:21;;;;;;;0.30;0.30;;;;;;;37.01;27.75;100767.63;6253103;22;20014;-75
2021/07/14 11:51:12;;;;;;;1.25;0.25;;;;;;;37.97;27.36;100763.69;6277220;22;20000;-76
2021/07/14 11:53:46;;;;;;;0.38;0.30;;;;;;;38.23;24.88;100772.41;6276282;22;20027;-76
2021/07/14 11:56:29;;;;;;;0.30;0.30;;;;;;;38.51;23.78;100778.56;6267671;22;20096;-76
2021/07/14 11:58:59;;;;;;;0.75;0.30;;;;;;;37.84;23.67;100774.25;6276364;22;20046;-76